sensor_id;sensor_type;location;lat;lon;timestamp;P1;durP1;ratioP1;P2;durP2;ratioP2
6840;SDS011;3458;53.678;14.080;2023-09-19T00:01:45;6.50;;;3.00;;
6840;SDS011;3458;53.678;14.080;2023-09-19T00:04:11;6.87;;;2.83;;
6840;SDS011;3458;53.678;14.080;2023-09-19T00:06:37;13.13;;;3.53;;
6840;SDS011;3458;53.678;14.080;2023-09-19T00:09:06;4.00;;;3.00;;
6840;SDS011;3458;53.678;14.080;2023-09-19T00:11:35;8.83;;;3.30;;
6840;SDS011;3458;53.678;14.080;2023-09-19T00:14:01;8.80;;;3.07;;
6840;SDS011;3458;53.678;14.080;2023-09-19T00:16:27;3.60;;;2.60;;
6840;SDS011;3458;53.678;14.080;2023-09-19T00:18:53;12.67;;;3.87;;
6840;SDS011;3458;53.678;14.080;2023-09-19T00:21:18;9.10;;;4.00;;
6840;SDS011;3458;53.678;14.080;2023-09-19T00:23:44;6.50;;;3.17;;
6840;SDS011;3458;53.678;14.080;2023-09-19T00:26:10;6.63;;;3.27;;
6840;SDS011;3458;53.678;14.080;2023-09-19T00:28:35;10.30;;;4.20;;
6840;SDS011;3458;53.678;14.080;2023-09-19T00:31:01;6.83;;;3.00;;
6840;SDS011;3458;53.678;14.080;2023-09-19T00:33:27;5.97;;;3.53;;
6840;SDS011;3458;53.678;14.080;2023-09-19T00:35:54;4.30;;;2.80;;
6840;SDS011;3458;53.678;14.080;2023-09-19T00:38:21;5.40;;;2.77;;
6840;SDS011;3458;53.678;14.080;2023-09-19T00:40:49;9.67;;;3.10;;
6840;SDS011;3458;53.678;14.080;2023-09-19T00:43:18;4.03;;;3.07;;
6840;SDS011;3458;53.678;14.080;2023-09-19T00:45:46;7.47;;;3.07;;
6840;SDS011;3458;53.678;14.080;2023-09-19T00:48:13;7.53;;;2.80;;
6840;SDS011;3458;53.678;14.080;2023-09-19T00:50:41;7.83;;;2.70;;
6840;SDS011;3458;53.678;14.080;2023-09-19T00:53:08;5.30;;;3.40;;
6840;SDS011;3458;53.678;14.080;2023-09-19T00:55:35;10.23;;;3.63;;
6840;SDS011;3458;53.678;14.080;2023-09-19T00:58:02;6.40;;;2.70;;
6840;SDS011;3458;53.678;14.080;2023-09-19T01:00:31;7.57;;;3.10;;
6840;SDS011;3458;53.678;14.080;2023-09-19T01:02:58;5.50;;;2.80;;
6840;SDS011;3458;53.678;14.080;2023-09-19T01:05:26;6.40;;;3.03;;
6840;SDS011;3458;53.678;14.080;2023-09-19T01:07:52;5.50;;;3.17;;
6840;SDS011;3458;53.678;14.080;2023-09-19T01:10:18;5.53;;;2.87;;
6840;SDS011;3458;53.678;14.080;2023-09-19T01:15:28;10.00;;;3.37;;
6840;SDS011;3458;53.678;14.080;2023-09-19T01:18:11;12.83;;;3.10;;
6840;SDS011;3458;53.678;14.080;2023-09-19T01:26:54;10.77;;;3.20;;
6840;SDS011;3458;53.678;14.080;2023-09-19T01:29:38;5.37;;;3.17;;
6840;SDS011;3458;53.678;14.080;2023-09-19T01:32:09;10.13;;;3.03;;
6840;SDS011;3458;53.678;14.080;2023-09-19T01:34:45;5.43;;;2.83;;
6840;SDS011;3458;53.678;14.080;2023-09-19T01:37:15;3.37;;;2.30;;
6840;SDS011;3458;53.678;14.080;2023-09-19T01:39:48;10.60;;;2.67;;
6840;SDS011;3458;53.678;14.080;2023-09-19T01:42:20;5.83;;;3.23;;
6840;SDS011;3458;53.678;14.080;2023-09-19T01:47:51;5.90;;;2.87;;
6840;SDS011;3458;53.678;14.080;2023-09-19T01:51:05;11.27;;;3.17;;
6840;SDS011;3458;53.678;14.080;2023-09-19T01:53:25;5.13;;;3.10;;
6840;SDS011;3458;53.678;14.080;2023-09-19T01:55:55;8.83;;;3.03;;
6840;SDS011;3458;53.678;14.080;2023-09-19T01:58:42;4.50;;;2.60;;
6840;SDS011;3458;53.678;14.080;2023-09-19T02:01:16;10.47;;;2.90;;
6840;SDS011;3458;53.678;14.080;2023-09-19T02:03:47;6.10;;;2.83;;
6840;SDS011;3458;53.678;14.080;2023-09-19T02:06:14;7.00;;;3.90;;
6840;SDS011;3458;53.678;14.080;2023-09-19T02:08:40;9.00;;;3.40;;
6840;SDS011;3458;53.678;14.080;2023-09-19T02:11:06;5.93;;;2.73;;
6840;SDS011;3458;53.678;14.080;2023-09-19T02:13:31;5.50;;;2.73;;
6840;SDS011;3458;53.678;14.080;2023-09-19T02:15:57;5.00;;;2.87;;
6840;SDS011;3458;53.678;14.080;2023-09-19T02:18:22;6.27;;;2.90;;
6840;SDS011;3458;53.678;14.080;2023-09-19T02:20:48;6.20;;;3.10;;
6840;SDS011;3458;53.678;14.080;2023-09-19T02:23:14;3.97;;;2.73;;
6840;SDS011;3458;53.678;14.080;2023-09-19T02:25:40;4.13;;;2.67;;
6840;SDS011;3458;53.678;14.080;2023-09-19T02:28:08;5.20;;;3.50;;
6840;SDS011;3458;53.678;14.080;2023-09-19T02:30:34;4.20;;;3.40;;
6840;SDS011;3458;53.678;14.080;2023-09-19T02:33:01;6.10;;;2.87;;
6840;SDS011;3458;53.678;14.080;2023-09-19T02:35:27;6.30;;;2.70;;
6840;SDS011;3458;53.678;14.080;2023-09-19T02:37:53;8.43;;;2.70;;
6840;SDS011;3458;53.678;14.080;2023-09-19T02:40:18;10.50;;;3.13;;
6840;SDS011;3458;53.678;14.080;2023-09-19T02:42:47;3.73;;;3.03;;
6840;SDS011;3458;53.678;14.080;2023-09-19T02:45:17;6.43;;;3.07;;
6840;SDS011;3458;53.678;14.080;2023-09-19T02:47:47;6.67;;;2.87;;
6840;SDS011;3458;53.678;14.080;2023-09-19T02:50:13;4.37;;;2.50;;
6840;SDS011;3458;53.678;14.080;2023-09-19T02:52:41;4.20;;;2.70;;
6840;SDS011;3458;53.678;14.080;2023-09-19T02:55:12;9.23;;;3.10;;
6840;SDS011;3458;53.678;14.080;2023-09-19T02:57:44;5.17;;;2.70;;
6840;SDS011;3458;53.678;14.080;2023-09-19T03:00:11;6.60;;;2.63;;
6840;SDS011;3458;53.678;14.080;2023-09-19T03:02:37;7.50;;;2.73;;
6840;SDS011;3458;53.678;14.080;2023-09-19T03:05:04;2.97;;;2.60;;
6840;SDS011;3458;53.678;14.080;2023-09-19T03:07:31;4.77;;;2.90;;
6840;SDS011;3458;53.678;14.080;2023-09-19T03:09:56;5.50;;;2.87;;
6840;SDS011;3458;53.678;14.080;2023-09-19T03:12:22;4.40;;;2.73;;
6840;SDS011;3458;53.678;14.080;2023-09-19T03:14:47;7.13;;;2.50;;
6840;SDS011;3458;53.678;14.080;2023-09-19T03:17:13;6.87;;;2.73;;
6840;SDS011;3458;53.678;14.080;2023-09-19T03:19:39;9.63;;;3.30;;
6840;SDS011;3458;53.678;14.080;2023-09-19T03:22:05;12.33;;;2.73;;
6840;SDS011;3458;53.678;14.080;2023-09-19T03:24:31;5.87;;;3.10;;
6840;SDS011;3458;53.678;14.080;2023-09-19T03:26:59;10.60;;;3.37;;
6840;SDS011;3458;53.678;14.080;2023-09-19T03:29:24;3.77;;;2.70;;
6840;SDS011;3458;53.678;14.080;2023-09-19T03:31:50;4.17;;;2.53;;
6840;SDS011;3458;53.678;14.080;2023-09-19T03:34:16;3.23;;;2.80;;
6840;SDS011;3458;53.678;14.080;2023-09-19T03:36:42;6.43;;;2.93;;
6840;SDS011;3458;53.678;14.080;2023-09-19T03:39:07;8.87;;;3.10;;
6840;SDS011;3458;53.678;14.080;2023-09-19T03:41:33;5.97;;;2.70;;
6840;SDS011;3458;53.678;14.080;2023-09-19T03:44:01;6.70;;;2.80;;
6840;SDS011;3458;53.678;14.080;2023-09-19T03:46:27;3.37;;;2.60;;
6840;SDS011;3458;53.678;14.080;2023-09-19T03:48:53;5.50;;;2.80;;
6840;SDS011;3458;53.678;14.080;2023-09-19T03:51:19;5.50;;;2.80;;
6840;SDS011;3458;53.678;14.080;2023-09-19T03:53:45;4.40;;;2.50;;
6840;SDS011;3458;53.678;14.080;2023-09-19T03:56:11;7.43;;;2.30;;
6840;SDS011;3458;53.678;14.080;2023-09-19T03:58:36;5.50;;;2.63;;
6840;SDS011;3458;53.678;14.080;2023-09-19T04:01:04;4.40;;;2.97;;
6840;SDS011;3458;53.678;14.080;2023-09-19T04:03:31;4.70;;;2.83;;
6840;SDS011;3458;53.678;14.080;2023-09-19T04:06:10;7.27;;;3.23;;
6840;SDS011;3458;53.678;14.080;2023-09-19T04:08:36;3.70;;;2.60;;
6840;SDS011;3458;53.678;14.080;2023-09-19T04:11:02;8.90;;;4.17;;
6840;SDS011;3458;53.678;14.080;2023-09-19T04:13:27;6.33;;;2.87;;
6840;SDS011;3458;53.678;14.080;2023-09-19T04:15:53;3.70;;;2.60;;
6840;SDS011;3458;53.678;14.080;2023-09-19T04:18:19;7.70;;;2.80;;
6840;SDS011;3458;53.678;14.080;2023-09-19T04:20:48;5.70;;;3.20;;
6840;SDS011;3458;53.678;14.080;2023-09-19T04:23:15;8.07;;;3.07;;
6840;SDS011;3458;53.678;14.080;2023-09-19T04:25:40;9.90;;;2.60;;
6840;SDS011;3458;53.678;14.080;2023-09-19T04:28:06;6.50;;;2.83;;
6840;SDS011;3458;53.678;14.080;2023-09-19T04:30:31;3.77;;;2.70;;
6840;SDS011;3458;53.678;14.080;2023-09-19T04:32:57;3.37;;;2.50;;
6840;SDS011;3458;53.678;14.080;2023-09-19T04:35:22;8.20;;;2.50;;
6840;SDS011;3458;53.678;14.080;2023-09-19T04:37:48;6.43;;;3.07;;
6840;SDS011;3458;53.678;14.080;2023-09-19T04:40:15;6.50;;;3.17;;
6840;SDS011;3458;53.678;14.080;2023-09-19T04:42:42;4.93;;;2.90;;
6840;SDS011;3458;53.678;14.080;2023-09-19T04:45:08;5.40;;;3.10;;
6840;SDS011;3458;53.678;14.080;2023-09-19T04:47:35;13.20;;;2.90;;
6840;SDS011;3458;53.678;14.080;2023-09-19T04:50:03;11.00;;;2.57;;
6840;SDS011;3458;53.678;14.080;2023-09-19T04:52:30;5.63;;;2.40;;
6840;SDS011;3458;53.678;14.080;2023-09-19T04:54:56;5.23;;;2.30;;
6840;SDS011;3458;53.678;14.080;2023-09-19T04:57:22;6.50;;;2.30;;
6840;SDS011;3458;53.678;14.080;2023-09-19T04:59:48;5.00;;;2.20;;
6840;SDS011;3458;53.678;14.080;2023-09-19T05:02:14;3.20;;;2.43;;
6840;SDS011;3458;53.678;14.080;2023-09-19T05:04:39;4.20;;;2.13;;
6840;SDS011;3458;53.678;14.080;2023-09-19T05:07:05;2.57;;;1.87;;
6840;SDS011;3458;53.678;14.080;2023-09-19T05:09:31;6.20;;;2.53;;
6840;SDS011;3458;53.678;14.080;2023-09-19T05:11:58;3.83;;;2.13;;
6840;SDS011;3458;53.678;14.080;2023-09-19T05:14:24;3.90;;;2.00;;
6840;SDS011;3458;53.678;14.080;2023-09-19T05:16:49;4.33;;;2.13;;
6840;SDS011;3458;53.678;14.080;2023-09-19T05:19:15;1.90;;;1.80;;
6840;SDS011;3458;53.678;14.080;2023-09-19T05:21:40;8.23;;;2.70;;
6840;SDS011;3458;53.678;14.080;2023-09-19T05:24:06;9.20;;;2.10;;
6840;SDS011;3458;53.678;14.080;2023-09-19T05:26:32;4.03;;;1.97;;
6840;SDS011;3458;53.678;14.080;2023-09-19T05:28:58;6.57;;;2.60;;
6840;SDS011;3458;53.678;14.080;2023-09-19T05:31:23;2.53;;;1.83;;
6840;SDS011;3458;53.678;14.080;2023-09-19T05:33:50;2.63;;;1.40;;
6840;SDS011;3458;53.678;14.080;2023-09-19T05:36:16;4.90;;;2.00;;
6840;SDS011;3458;53.678;14.080;2023-09-19T05:38:42;3.00;;;2.23;;
6840;SDS011;3458;53.678;14.080;2023-09-19T05:41:09;4.27;;;2.13;;
6840;SDS011;3458;53.678;14.080;2023-09-19T05:43:38;7.10;;;2.97;;
6840;SDS011;3458;53.678;14.080;2023-09-19T05:46:05;4.43;;;2.10;;
6840;SDS011;3458;53.678;14.080;2023-09-19T05:48:33;9.00;;;2.40;;
6840;SDS011;3458;53.678;14.080;2023-09-19T05:50:58;8.53;;;2.00;;
6840;SDS011;3458;53.678;14.080;2023-09-19T05:53:24;4.27;;;2.33;;
6840;SDS011;3458;53.678;14.080;2023-09-19T05:55:50;9.83;;;2.10;;
6840;SDS011;3458;53.678;14.080;2023-09-19T05:58:18;6.83;;;2.50;;
6840;SDS011;3458;53.678;14.080;2023-09-19T06:00:44;6.83;;;2.53;;
6840;SDS011;3458;53.678;14.080;2023-09-19T06:03:12;3.80;;;2.10;;
6840;SDS011;3458;53.678;14.080;2023-09-19T06:05:39;4.13;;;1.80;;
6840;SDS011;3458;53.678;14.080;2023-09-19T06:08:05;4.90;;;1.97;;
6840;SDS011;3458;53.678;14.080;2023-09-19T06:10:32;3.93;;;2.10;;
6840;SDS011;3458;53.678;14.080;2023-09-19T06:12:59;3.27;;;1.93;;
6840;SDS011;3458;53.678;14.080;2023-09-19T06:15:29;3.00;;;1.93;;
6840;SDS011;3458;53.678;14.080;2023-09-19T06:17:57;6.13;;;2.33;;
6840;SDS011;3458;53.678;14.080;2023-09-19T06:20:24;7.73;;;2.47;;
6840;SDS011;3458;53.678;14.080;2023-09-19T06:22:50;2.70;;;2.20;;
6840;SDS011;3458;53.678;14.080;2023-09-19T06:25:16;4.63;;;2.50;;
6840;SDS011;3458;53.678;14.080;2023-09-19T06:27:46;3.53;;;2.30;;
6840;SDS011;3458;53.678;14.080;2023-09-19T06:30:12;4.83;;;2.23;;
6840;SDS011;3458;53.678;14.080;2023-09-19T06:32:38;4.20;;;2.23;;
6840;SDS011;3458;53.678;14.080;2023-09-19T06:35:05;7.73;;;2.70;;
6840;SDS011;3458;53.678;14.080;2023-09-19T06:37:36;4.60;;;2.07;;
6840;SDS011;3458;53.678;14.080;2023-09-19T06:40:03;5.23;;;2.13;;
6840;SDS011;3458;53.678;14.080;2023-09-19T06:42:42;3.40;;;2.37;;
6840;SDS011;3458;53.678;14.080;2023-09-19T06:45:13;3.43;;;2.20;;
6840;SDS011;3458;53.678;14.080;2023-09-19T06:47:43;4.90;;;2.00;;
6840;SDS011;3458;53.678;14.080;2023-09-19T06:50:10;9.30;;;2.63;;
6840;SDS011;3458;53.678;14.080;2023-09-19T06:52:38;6.40;;;1.97;;
6840;SDS011;3458;53.678;14.080;2023-09-19T06:55:05;6.83;;;2.50;;
6840;SDS011;3458;53.678;14.080;2023-09-19T06:57:31;2.77;;;2.00;;
6840;SDS011;3458;53.678;14.080;2023-09-19T06:59:57;4.87;;;2.50;;
6840;SDS011;3458;53.678;14.080;2023-09-19T07:02:22;4.67;;;2.00;;
6840;SDS011;3458;53.678;14.080;2023-09-19T07:04:48;6.43;;;1.97;;
6840;SDS011;3458;53.678;14.080;2023-09-19T07:07:14;8.23;;;2.60;;
6840;SDS011;3458;53.678;14.080;2023-09-19T07:09:41;2.60;;;1.60;;
6840;SDS011;3458;53.678;14.080;2023-09-19T07:12:07;7.17;;;2.00;;
6840;SDS011;3458;53.678;14.080;2023-09-19T07:14:33;9.67;;;2.77;;
6840;SDS011;3458;53.678;14.080;2023-09-19T07:16:58;3.33;;;2.13;;
6840;SDS011;3458;53.678;14.080;2023-09-19T07:19:28;2.90;;;1.80;;
6840;SDS011;3458;53.678;14.080;2023-09-19T07:21:55;4.80;;;2.10;;
6840;SDS011;3458;53.678;14.080;2023-09-19T07:24:20;4.30;;;1.87;;
6840;SDS011;3458;53.678;14.080;2023-09-19T07:26:49;3.53;;;1.57;;
6840;SDS011;3458;53.678;14.080;2023-09-19T07:29:15;7.10;;;2.33;;
6840;SDS011;3458;53.678;14.080;2023-09-19T07:31:40;7.90;;;2.27;;
6840;SDS011;3458;53.678;14.080;2023-09-19T07:34:06;10.90;;;2.17;;
6840;SDS011;3458;53.678;14.080;2023-09-19T07:36:34;4.33;;;2.30;;
6840;SDS011;3458;53.678;14.080;2023-09-19T07:38:59;3.67;;;2.30;;
6840;SDS011;3458;53.678;14.080;2023-09-19T07:41:25;7.10;;;2.20;;
6840;SDS011;3458;53.678;14.080;2023-09-19T07:43:50;3.57;;;2.30;;
6840;SDS011;3458;53.678;14.080;2023-09-19T07:46:16;2.80;;;1.83;;
6840;SDS011;3458;53.678;14.080;2023-09-19T07:48:42;4.83;;;2.20;;
6840;SDS011;3458;53.678;14.080;2023-09-19T07:51:12;8.13;;;2.10;;
6840;SDS011;3458;53.678;14.080;2023-09-19T07:53:39;3.43;;;2.13;;
6840;SDS011;3458;53.678;14.080;2023-09-19T07:56:05;6.20;;;2.30;;
6840;SDS011;3458;53.678;14.080;2023-09-19T07:58:32;9.23;;;1.97;;
6840;SDS011;3458;53.678;14.080;2023-09-19T08:01:08;6.80;;;2.23;;
6840;SDS011;3458;53.678;14.080;2023-09-19T08:03:35;3.53;;;2.07;;
6840;SDS011;3458;53.678;14.080;2023-09-19T08:06:06;2.87;;;2.10;;
6840;SDS011;3458;53.678;14.080;2023-09-19T08:08:32;2.83;;;1.97;;
6840;SDS011;3458;53.678;14.080;2023-09-19T08:11:04;2.70;;;1.70;;
6840;SDS011;3458;53.678;14.080;2023-09-19T08:13:37;4.50;;;2.37;;
6840;SDS011;3458;53.678;14.080;2023-09-19T08:16:11;2.90;;;2.10;;
6840;SDS011;3458;53.678;14.080;2023-09-19T08:18:38;3.63;;;2.53;;
6840;SDS011;3458;53.678;14.080;2023-09-19T08:21:06;6.93;;;1.83;;
6840;SDS011;3458;53.678;14.080;2023-09-19T08:23:36;7.37;;;2.00;;
6840;SDS011;3458;53.678;14.080;2023-09-19T08:26:03;4.07;;;2.17;;
6840;SDS011;3458;53.678;14.080;2023-09-19T08:28:32;7.50;;;2.03;;
6840;SDS011;3458;53.678;14.080;2023-09-19T08:31:05;14.53;;;2.67;;
6840;SDS011;3458;53.678;14.080;2023-09-19T08:33:32;5.00;;;2.50;;
6840;SDS011;3458;53.678;14.080;2023-09-19T08:35:58;10.87;;;2.20;;
6840;SDS011;3458;53.678;14.080;2023-09-19T08:38:24;4.33;;;1.90;;
6840;SDS011;3458;53.678;14.080;2023-09-19T08:40:54;4.70;;;1.87;;
6840;SDS011;3458;53.678;14.080;2023-09-19T08:43:24;6.67;;;2.37;;
6840;SDS011;3458;53.678;14.080;2023-09-19T08:45:50;8.27;;;2.90;;
6840;SDS011;3458;53.678;14.080;2023-09-19T08:48:48;7.03;;;2.13;;
6840;SDS011;3458;53.678;14.080;2023-09-19T08:51:42;8.57;;;2.10;;
6840;SDS011;3458;53.678;14.080;2023-09-19T08:56:47;3.93;;;2.43;;
6840;SDS011;3458;53.678;14.080;2023-09-19T08:59:13;4.67;;;2.03;;
6840;SDS011;3458;53.678;14.080;2023-09-19T09:01:39;11.13;;;2.37;;
6840;SDS011;3458;53.678;14.080;2023-09-19T09:04:07;4.00;;;2.10;;
6840;SDS011;3458;53.678;14.080;2023-09-19T09:06:34;9.40;;;2.27;;
6840;SDS011;3458;53.678;14.080;2023-09-19T09:09:00;4.63;;;2.07;;
6840;SDS011;3458;53.678;14.080;2023-09-19T09:11:28;4.30;;;2.03;;
6840;SDS011;3458;53.678;14.080;2023-09-19T09:13:54;4.10;;;2.07;;
6840;SDS011;3458;53.678;14.080;2023-09-19T09:16:19;6.70;;;2.37;;
6840;SDS011;3458;53.678;14.080;2023-09-19T09:18:45;9.77;;;2.10;;
6840;SDS011;3458;53.678;14.080;2023-09-19T09:21:11;6.43;;;2.37;;
6840;SDS011;3458;53.678;14.080;2023-09-19T09:23:39;7.90;;;2.20;;
6840;SDS011;3458;53.678;14.080;2023-09-19T09:26:05;4.97;;;2.10;;
6840;SDS011;3458;53.678;14.080;2023-09-19T09:28:33;5.00;;;1.80;;
6840;SDS011;3458;53.678;14.080;2023-09-19T09:31:00;15.97;;;2.20;;
6840;SDS011;3458;53.678;14.080;2023-09-19T09:33:33;6.50;;;2.20;;
6840;SDS011;3458;53.678;14.080;2023-09-19T09:35:59;4.70;;;2.50;;
6840;SDS011;3458;53.678;14.080;2023-09-19T09:38:28;9.90;;;2.53;;
6840;SDS011;3458;53.678;14.080;2023-09-19T09:41:17;7.37;;;2.07;;
6840;SDS011;3458;53.678;14.080;2023-09-19T09:43:52;5.73;;;2.27;;
6840;SDS011;3458;53.678;14.080;2023-09-19T09:46:19;15.13;;;3.07;;
6840;SDS011;3458;53.678;14.080;2023-09-19T09:48:46;2.90;;;1.60;;
6840;SDS011;3458;53.678;14.080;2023-09-19T09:51:44;2.90;;;2.00;;
6840;SDS011;3458;53.678;14.080;2023-09-19T09:54:22;5.40;;;1.90;;
6840;SDS011;3458;53.678;14.080;2023-09-19T09:56:58;4.17;;;2.37;;
6840;SDS011;3458;53.678;14.080;2023-09-19T09:59:46;4.40;;;1.60;;
6840;SDS011;3458;53.678;14.080;2023-09-19T10:02:30;4.50;;;1.80;;
6840;SDS011;3458;53.678;14.080;2023-09-19T10:07:52;5.83;;;1.60;;
6840;SDS011;3458;53.678;14.080;2023-09-19T10:10:43;4.87;;;2.00;;
6840;SDS011;3458;53.678;14.080;2023-09-19T10:13:19;8.03;;;2.40;;
6840;SDS011;3458;53.678;14.080;2023-09-19T10:15:48;8.37;;;1.97;;
6840;SDS011;3458;53.678;14.080;2023-09-19T10:18:16;6.23;;;2.23;;
6840;SDS011;3458;53.678;14.080;2023-09-19T10:20:45;4.00;;;1.80;;
6840;SDS011;3458;53.678;14.080;2023-09-19T10:23:13;4.63;;;2.90;;
6840;SDS011;3458;53.678;14.080;2023-09-19T10:25:47;5.13;;;1.93;;
6840;SDS011;3458;53.678;14.080;2023-09-19T10:28:14;2.90;;;2.20;;
6840;SDS011;3458;53.678;14.080;2023-09-19T10:30:41;6.87;;;1.83;;
6840;SDS011;3458;53.678;14.080;2023-09-19T10:33:12;3.03;;;1.63;;
6840;SDS011;3458;53.678;14.080;2023-09-19T10:35:40;9.73;;;2.17;;
6840;SDS011;3458;53.678;14.080;2023-09-19T10:38:09;10.70;;;2.07;;
6840;SDS011;3458;53.678;14.080;2023-09-19T10:40:36;6.20;;;1.90;;
6840;SDS011;3458;53.678;14.080;2023-09-19T10:43:06;8.50;;;1.90;;
6840;SDS011;3458;53.678;14.080;2023-09-19T10:45:32;6.40;;;2.30;;
6840;SDS011;3458;53.678;14.080;2023-09-19T10:48:00;4.03;;;1.57;;
6840;SDS011;3458;53.678;14.080;2023-09-19T10:50:31;5.20;;;2.13;;
6840;SDS011;3458;53.678;14.080;2023-09-19T10:53:10;10.60;;;1.50;;
6840;SDS011;3458;53.678;14.080;2023-09-19T10:55:37;4.83;;;1.93;;
6840;SDS011;3458;53.678;14.080;2023-09-19T10:58:03;11.90;;;2.10;;
6840;SDS011;3458;53.678;14.080;2023-09-19T11:00:53;3.90;;;2.03;;
6840;SDS011;3458;53.678;14.080;2023-09-19T11:03:20;4.33;;;2.10;;
6840;SDS011;3458;53.678;14.080;2023-09-19T11:06:05;6.33;;;2.03;;
6840;SDS011;3458;53.678;14.080;2023-09-19T11:08:53;3.10;;;1.60;;
6840;SDS011;3458;53.678;14.080;2023-09-19T11:11:47;6.00;;;2.27;;
6840;SDS011;3458;53.678;14.080;2023-09-19T11:22:52;6.47;;;2.20;;
6840;SDS011;3458;53.678;14.080;2023-09-19T11:30:34;5.30;;;2.00;;
6840;SDS011;3458;53.678;14.080;2023-09-19T11:46:29;11.93;;;2.20;;
6840;SDS011;3458;53.678;14.080;2023-09-19T11:48:58;5.40;;;2.03;;
6840;SDS011;3458;53.678;14.080;2023-09-19T11:51:40;3.27;;;1.77;;
6840;SDS011;3458;53.678;14.080;2023-09-19T11:54:10;6.50;;;1.87;;
6840;SDS011;3458;53.678;14.080;2023-09-19T11:56:43;2.60;;;1.80;;
6840;SDS011;3458;53.678;14.080;2023-09-19T11:59:10;11.43;;;2.00;;
6840;SDS011;3458;53.678;14.080;2023-09-19T12:01:36;5.87;;;2.20;;
6840;SDS011;3458;53.678;14.080;2023-09-19T12:04:11;5.17;;;1.77;;
6840;SDS011;3458;53.678;14.080;2023-09-19T12:06:37;10.27;;;2.30;;
6840;SDS011;3458;53.678;14.080;2023-09-19T12:09:07;5.97;;;2.30;;
6840;SDS011;3458;53.678;14.080;2023-09-19T12:11:42;5.03;;;1.73;;
6840;SDS011;3458;53.678;14.080;2023-09-19T12:14:09;8.40;;;2.10;;
6840;SDS011;3458;53.678;14.080;2023-09-19T12:16:35;9.53;;;2.23;;
6840;SDS011;3458;53.678;14.080;2023-09-19T12:19:20;5.63;;;1.70;;
6840;SDS011;3458;53.678;14.080;2023-09-19T12:21:56;5.30;;;1.80;;
6840;SDS011;3458;53.678;14.080;2023-09-19T12:24:29;8.90;;;2.30;;
6840;SDS011;3458;53.678;14.080;2023-09-19T12:26:59;5.27;;;1.83;;
6840;SDS011;3458;53.678;14.080;2023-09-19T12:29:41;8.40;;;2.10;;
6840;SDS011;3458;53.678;14.080;2023-09-19T12:32:07;5.40;;;2.30;;
6840;SDS011;3458;53.678;14.080;2023-09-19T12:34:32;5.00;;;2.33;;
6840;SDS011;3458;53.678;14.080;2023-09-19T12:37:13;4.87;;;1.63;;
6840;SDS011;3458;53.678;14.080;2023-09-19T12:39:46;6.00;;;2.30;;
6840;SDS011;3458;53.678;14.080;2023-09-19T12:42:25;5.47;;;2.33;;
6840;SDS011;3458;53.678;14.080;2023-09-19T12:44:57;3.90;;;1.83;;
6840;SDS011;3458;53.678;14.080;2023-09-19T12:47:25;4.90;;;1.90;;
6840;SDS011;3458;53.678;14.080;2023-09-19T12:52:46;5.00;;;1.90;;
6840;SDS011;3458;53.678;14.080;2023-09-19T12:55:20;4.03;;;2.10;;
6840;SDS011;3458;53.678;14.080;2023-09-19T13:00:33;11.83;;;2.37;;
6840;SDS011;3458;53.678;14.080;2023-09-19T13:05:50;3.73;;;1.70;;
6840;SDS011;3458;53.678;14.080;2023-09-19T13:08:23;4.17;;;2.40;;
6840;SDS011;3458;53.678;14.080;2023-09-19T13:13:40;2.60;;;1.60;;
6840;SDS011;3458;53.678;14.080;2023-09-19T13:16:19;5.83;;;2.10;;
6840;SDS011;3458;53.678;14.080;2023-09-19T13:21:15;5.10;;;2.30;;
6840;SDS011;3458;53.678;14.080;2023-09-19T13:23:53;6.93;;;2.40;;
6840;SDS011;3458;53.678;14.080;2023-09-19T13:26:23;8.90;;;2.43;;
6840;SDS011;3458;53.678;14.080;2023-09-19T13:28:50;2.97;;;2.20;;
6840;SDS011;3458;53.678;14.080;2023-09-19T13:31:15;3.43;;;2.30;;
6840;SDS011;3458;53.678;14.080;2023-09-19T13:33:44;8.83;;;2.30;;
6840;SDS011;3458;53.678;14.080;2023-09-19T13:36:11;3.03;;;2.17;;
6840;SDS011;3458;53.678;14.080;2023-09-19T13:38:38;5.03;;;1.83;;
6840;SDS011;3458;53.678;14.080;2023-09-19T13:41:09;4.07;;;2.83;;
6840;SDS011;3458;53.678;14.080;2023-09-19T13:43:36;6.43;;;2.27;;
6840;SDS011;3458;53.678;14.080;2023-09-19T13:46:02;7.20;;;2.47;;
6840;SDS011;3458;53.678;14.080;2023-09-19T13:48:28;3.97;;;1.97;;
6840;SDS011;3458;53.678;14.080;2023-09-19T13:50:54;3.43;;;2.20;;
6840;SDS011;3458;53.678;14.080;2023-09-19T13:53:20;5.77;;;2.20;;
6840;SDS011;3458;53.678;14.080;2023-09-19T13:55:46;4.77;;;2.17;;
6840;SDS011;3458;53.678;14.080;2023-09-19T13:58:13;8.83;;;2.07;;
6840;SDS011;3458;53.678;14.080;2023-09-19T14:00:39;7.47;;;3.10;;
6840;SDS011;3458;53.678;14.080;2023-09-19T14:03:04;5.27;;;2.43;;
6840;SDS011;3458;53.678;14.080;2023-09-19T14:05:30;4.50;;;1.87;;
6840;SDS011;3458;53.678;14.080;2023-09-19T14:07:56;2.60;;;1.80;;
6840;SDS011;3458;53.678;14.080;2023-09-19T14:10:24;8.20;;;2.30;;
6840;SDS011;3458;53.678;14.080;2023-09-19T14:12:51;3.53;;;2.00;;
6840;SDS011;3458;53.678;14.080;2023-09-19T14:15:16;4.60;;;2.00;;
6840;SDS011;3458;53.678;14.080;2023-09-19T14:17:42;3.73;;;1.70;;
6840;SDS011;3458;53.678;14.080;2023-09-19T14:20:09;6.07;;;2.13;;
6840;SDS011;3458;53.678;14.080;2023-09-19T14:22:35;4.90;;;1.87;;
6840;SDS011;3458;53.678;14.080;2023-09-19T14:25:01;4.70;;;2.53;;
6840;SDS011;3458;53.678;14.080;2023-09-19T14:27:30;4.80;;;2.40;;
6840;SDS011;3458;53.678;14.080;2023-09-19T14:29:56;6.53;;;2.47;;
6840;SDS011;3458;53.678;14.080;2023-09-19T14:32:22;6.27;;;2.33;;
6840;SDS011;3458;53.678;14.080;2023-09-19T14:34:48;3.83;;;1.93;;
6840;SDS011;3458;53.678;14.080;2023-09-19T14:37:14;5.67;;;2.00;;
6840;SDS011;3458;53.678;14.080;2023-09-19T14:39:41;9.47;;;2.30;;
6840;SDS011;3458;53.678;14.080;2023-09-19T14:42:10;5.17;;;1.90;;
6840;SDS011;3458;53.678;14.080;2023-09-19T14:44:36;4.60;;;1.80;;
6840;SDS011;3458;53.678;14.080;2023-09-19T14:47:02;4.33;;;1.80;;
6840;SDS011;3458;53.678;14.080;2023-09-19T14:49:31;5.67;;;2.03;;
6840;SDS011;3458;53.678;14.080;2023-09-19T14:51:58;6.00;;;1.80;;
6840;SDS011;3458;53.678;14.080;2023-09-19T14:54:24;4.70;;;2.03;;
6840;SDS011;3458;53.678;14.080;2023-09-19T14:56:49;2.90;;;1.60;;
6840;SDS011;3458;53.678;14.080;2023-09-19T14:59:19;7.83;;;3.00;;
6840;SDS011;3458;53.678;14.080;2023-09-19T15:01:45;5.10;;;2.27;;
6840;SDS011;3458;53.678;14.080;2023-09-19T15:04:10;5.33;;;1.60;;
6840;SDS011;3458;53.678;14.080;2023-09-19T15:06:36;6.43;;;2.10;;
6840;SDS011;3458;53.678;14.080;2023-09-19T15:09:02;6.73;;;2.37;;
6840;SDS011;3458;53.678;14.080;2023-09-19T15:11:29;5.27;;;1.97;;
6840;SDS011;3458;53.678;14.080;2023-09-19T15:13:55;3.10;;;2.30;;
6840;SDS011;3458;53.678;14.080;2023-09-19T15:16:21;11.63;;;2.50;;
6840;SDS011;3458;53.678;14.080;2023-09-19T15:18:47;3.47;;;2.00;;
6840;SDS011;3458;53.678;14.080;2023-09-19T15:21:13;4.93;;;2.27;;
6840;SDS011;3458;53.678;14.080;2023-09-19T15:23:40;6.37;;;2.53;;
6840;SDS011;3458;53.678;14.080;2023-09-19T15:26:13;5.37;;;2.10;;
6840;SDS011;3458;53.678;14.080;2023-09-19T15:28:42;5.67;;;2.20;;
6840;SDS011;3458;53.678;14.080;2023-09-19T15:31:08;8.20;;;2.10;;
6840;SDS011;3458;53.678;14.080;2023-09-19T15:33:36;5.47;;;2.10;;
6840;SDS011;3458;53.678;14.080;2023-09-19T15:36:05;7.27;;;1.67;;
6840;SDS011;3458;53.678;14.080;2023-09-19T15:38:31;6.00;;;2.10;;
6840;SDS011;3458;53.678;14.080;2023-09-19T15:41:18;4.37;;;1.90;;
6840;SDS011;3458;53.678;14.080;2023-09-19T15:43:45;5.80;;;2.00;;
6840;SDS011;3458;53.678;14.080;2023-09-19T15:46:10;15.53;;;2.47;;
6840;SDS011;3458;53.678;14.080;2023-09-19T15:48:35;9.13;;;2.23;;
6840;SDS011;3458;53.678;14.080;2023-09-19T15:51:04;8.43;;;2.30;;
6840;SDS011;3458;53.678;14.080;2023-09-19T15:53:34;6.33;;;3.13;;
6840;SDS011;3458;53.678;14.080;2023-09-19T15:56:10;7.27;;;2.20;;
6840;SDS011;3458;53.678;14.080;2023-09-19T15:58:36;10.87;;;2.20;;
6840;SDS011;3458;53.678;14.080;2023-09-19T16:01:04;8.27;;;2.60;;
6840;SDS011;3458;53.678;14.080;2023-09-19T16:03:33;9.37;;;1.73;;
6840;SDS011;3458;53.678;14.080;2023-09-19T16:06:00;7.80;;;2.00;;
6840;SDS011;3458;53.678;14.080;2023-09-19T16:08:26;8.40;;;2.40;;